Time;durP1;ratioP1;P1;durP2;ratioP2;P2;SDS_P1;SDS_P2;PMS_P1;PMS_P2;Temp;Humidity;BMP_temperature;BMP_pressure;BME280_temperature;BME280_humidity;BME280_pressure;Samples;Min_cycle;Max_cycle;Signal;HPM_P1;HPM_P2
2023/03/26 00:03:26;;;;;;;7.30;1.47;;;;;;;5.32;100.00;95503.06;10390222;28;20196;-75
2023/03/26 00:08:27;;;;;;;6.43;1.80;;;;;;;5.31;100.00;95504.88;10408438;28;20683;-75
2023/03/26 00:13:27;;;;;;;3.57;1.33;;;;;;;5.22;100.00;95504.97;10406245;28;20684;-76
2023/03/26 00:18:33;;;;;;;7.10;2.00;;;;;;;5.21;100.00;95498.97;10408051;28;20559;-75
2023/03/26 00:23:34;;;;;;;4.80;1.50;;;;;;;5.19;100.00;95513.84;10391008;28;20563;-75
2023/03/26 00:28:39;;;;;;;6.70;1.77;;;;;;;5.20;100.00;95512.91;10407157;28;20676;-76
2023/03/26 00:33:40;;;;;;;2.87;1.50;;;;;;;5.28;100.00;95518.16;10408112;28;20185;-76
2023/03/26 00:38:41;;;;;;;1.83;1.33;;;;;;;5.20;100.00;95515.50;10390214;28;20236;-76
2023/03/26 00:43:45;;;;;;;5.80;2.20;;;;;;;5.05;100.00;95511.81;10397571;28;20205;-76
2023/03/26 00:48:46;;;;;;;6.63;1.67;;;;;;;5.04;100.00;95511.03;10414708;28;20670;-76
2023/03/26 00:53:48;;;;;;;5.10;1.57;;;;;;;5.03;100.00;95504.19;10397197;28;20188;-75
2023/03/26 00:58:48;;;;;;;6.30;1.50;;;;;;;5.07;100.00;95489.13;10413383;28;20299;-76
2023/03/26 01:03:57;;;;;;;4.83;1.60;;;;;;;4.98;100.00;95477.88;10413333;28;20187;-76
2023/03/26 01:09:03;;;;;;;4.13;1.57;;;;;;;4.91;100.00;95487.25;10413914;28;20189;-75
2023/03/26 01:14:12;;;;;;;2.90;1.60;;;;;;;5.07;100.00;95478.72;10380013;28;20188;-75
2023/03/26 01:19:36;;;;;;;3.30;1.40;;;;;;;5.18;100.00;95487.09;10395886;28;20615;-75
2023/03/26 01:24:38;;;;;;;6.07;1.67;;;;;;;5.34;100.00;95469.97;10378394;28;20191;-75
2023/03/26 01:29:43;;;;;;;4.63;1.37;;;;;;;5.42;100.00;95472.63;10411562;28;20187;-75
2023/03/26 01:34:57;;;;;;;3.53;1.43;;;;;;;5.40;100.00;95484.94;10411510;28;20184;-75
2023/03/26 01:40:05;;;;;;;4.77;1.30;;;;;;;5.33;100.00;95489.94;10393687;28;20255;-76
2023/03/26 01:45:21;;;;;;;3.37;1.23;;;;;;;5.24;100.00;95490.84;10394476;28;20200;-75
2023/03/26 01:50:22;;;;;;;4.77;1.30;;;;;;;5.16;100.00;95493.38;10393723;28;20184;-75
2023/03/26 01:55:29;;;;;;;2.40;1.23;;;;;;;5.08;100.00;95495.94;10412108;28;20197;-75
2023/03/26 02:00:41;;;;;;;5.30;1.50;;;;;;;5.02;100.00;95480.97;10394046;28;20231;-75
2023/03/26 02:05:47;;;;;;;2.20;1.30;;;;;;;4.93;100.00;95473.16;10410342;28;20563;-75
2023/03/26 02:10:55;;;;;;;6.23;1.43;;;;;;;4.92;100.00;95468.13;10394134;28;20184;-75
2023/03/26 02:16:00;;;;;;;5.37;1.80;;;;;;;4.91;100.00;95475.06;10411131;28;20180;-75
2023/03/26 02:21:11;;;;;;;2.60;1.00;;;;;;;4.95;100.00;95471.22;10411244;28;20213;-75
2023/03/26 02:26:14;;;;;;;5.87;1.63;;;;;;;5.03;100.00;95480.03;10410329;28;20196;-75
2023/03/26 02:31:28;;;;;;;3.97;1.60;;;;;;;5.16;100.00;95477.81;10409669;28;20200;-75
2023/03/26 02:36:29;;;;;;;2.87;1.73;;;;;;;5.17;100.00;95484.66;10393123;28;20225;-75
2023/03/26 02:41:33;;;;;;;4.40;1.87;;;;;;;4.98;100.00;95494.25;10392246;28;20567;-75
2023/03/26 02:46:37;;;;;;;5.50;1.40;;;;;;;4.81;100.00;95490.75;10392744;28;20185;-75
2023/03/26 02:51:55;;;;;;;1.90;1.20;;;;;;;4.48;100.00;95497.44;10450020;28;20609;-75
2023/03/26 02:56:59;;;;;;;4.27;1.60;;;;;;;4.35;100.00;95497.00;10448783;28;20207;-75
2023/03/26 03:02:24;;;;;;;3.57;1.50;;;;;;;4.21;100.00;95481.00;10431115;28;20200;-75
2023/03/26 03:07:27;;;;;;;2.60;1.47;;;;;;;4.13;100.00;95478.31;10427455;28;20176;-76
2023/03/26 03:12:28;;;;;;;4.00;1.40;;;;;;;4.06;100.00;95472.91;10424727;28;20196;-75
2023/03/26 03:17:29;;;;;;;1.27;1.10;;;;;;;3.95;100.00;95470.56;10425281;28;20684;-75
2023/03/26 03:22:29;;;;;;;3.40;1.70;;;;;;;4.01;100.00;95462.19;10443667;28;20187;-75
2023/03/26 03:27:30;;;;;;;3.83;1.80;;;;;;;4.06;100.00;95465.13;10423575;28;20188;-75
2023/03/26 03:32:39;;;;;;;6.30;1.80;;;;;;;4.14;100.00;95463.59;10425811;28;20192;-75
2023/03/26 03:37:39;;;;;;;13.13;2.30;;;;;;;4.25;100.00;95478.91;10424272;28;20239;-74
2023/03/26 03:42:41;;;;;;;4.97;1.83;;;;;;;4.37;100.00;95471.75;10425150;28;20204;-74
2023/03/26 03:47:43;;;;;;;3.10;1.50;;;;;;;4.34;100.00;95461.69;10424010;28;20184;-75
2023/03/26 03:52:44;;;;;;;5.93;1.83;;;;;;;4.28;100.00;95463.88;10424289;28;20193;-75
2023/03/26 03:57:45;;;;;;;5.57;1.87;;;;;;;4.25;100.00;95466.75;10424889;28;20223;-74
2023/03/26 04:02:53;;;;;;;4.40;1.90;;;;;;;4.35;100.00;95463.28;10431086;28;20187;-74
2023/03/26 04:07:54;;;;;;;8.00;2.00;;;;;;;4.36;100.00;95464.91;10432594;28;20242;-75
2023/03/26 04:13:00;;;;;;;4.53;1.90;;;;;;;4.41;100.00;95453.16;10450829;28;20545;-75
2023/03/26 04:18:19;;;;;;;4.80;1.83;;;;;;;4.67;100.00;95452.38;10440986;28;20239;-75
2023/03/26 04:23:21;;;;;;;6.60;2.17;;;;;;;4.79;100.00;95452.94;10440932;28;20365;-75
2023/03/26 04:28:29;;;;;;;10.17;2.57;;;;;;;4.85;100.00;95461.91;10440824;28;20318;-75
2023/03/26 04:33:54;;;;;;;5.23;1.73;;;;;;;4.98;100.00;95459.72;10457937;28;20200;-75
2023/03/26 04:38:57;;;;;;;3.93;1.73;;;;;;;4.98;100.00;95455.34;10423449;28;20228;-75
2023/03/26 04:44:15;;;;;;;3.17;1.40;;;;;;;5.04;100.00;95453.91;10457952;28;20558;-75
2023/03/26 04:49:23;;;;;;;5.17;1.60;;;;;;;4.95;100.00;95457.44;10424550;28;20216;-75
2023/03/26 04:54:24;;;;;;;5.83;1.47;;;;;;;5.00;100.00;95457.78;10439788;28;20274;-75
2023/03/26 04:59:34;;;;;;;5.67;1.70;;;;;;;4.97;100.00;95461.47;10424385;28;20218;-75
2023/03/26 05:04:39;;;;;;;5.47;1.87;;;;;;;4.87;100.00;95442.63;10438526;28;20192;-75
2023/03/26 05:09:41;;;;;;;8.80;1.80;;;;;;;4.92;100.00;95448.16;10439247;28;20188;-75
2023/03/26 05:14:49;;;;;;;3.87;1.83;;;;;;;4.98;100.00;95449.34;10438948;28;20191;-75
2023/03/26 05:19:56;;;;;;;8.37;1.73;;;;;;;5.00;100.00;95450.00;10438572;28;20704;-75
2023/03/26 05:24:57;;;;;;;9.07;1.80;;;;;;;5.04;100.00;95446.13;10437978;28;20184;-75
2023/03/26 05:30:01;;;;;;;4.17;1.57;;;;;;;4.83;100.00;95452.47;10438463;28;20184;-75
2023/03/26 05:35:06;;;;;;;8.00;2.00;;;;;;;4.95;100.00;95449.66;10437817;28;20556;-75
2023/03/26 05:40:12;;;;;;;13.40;1.60;;;;;;;5.15;100.00;95450.25;10437649;28;20776;-75
2023/03/26 05:45:39;;;;;;;4.97;1.87;;;;;;;5.14;100.00;95454.59;10452433;28;20220;-75
2023/03/26 05:50:57;;;;;;;6.93;1.60;;;;;;;5.10;100.00;95457.66;10440150;28;20183;-75
2023/03/26 05:56:00;;;;;;;7.17;3.20;;;;;;;5.20;100.00;95462.75;10420790;28;20832;-75
2023/03/26 06:01:43;;;;;;;3.90;2.33;;;;;;;5.18;100.00;95476.69;10454651;28;20232;-75
2023/03/26 06:07:02;;;;;;;3.53;1.90;;;;;;;5.28;100.00;95468.81;10436721;28;20717;-75
2023/03/26 06:12:05;;;;;;;7.50;1.77;;;;;;;5.24;100.00;95464.91;10419910;28;20191;-75
2023/03/26 06:17:05;;;;;;;4.27;2.00;;;;;;;5.41;100.00;95465.00;10436060;28;20215;-75
2023/03/26 06:22:26;;;;;;;5.60;2.30;;;;;;;5.23;100.00;95465.84;10453808;28;20562;-75
2023/03/26 06:27:44;;;;;;;7.23;2.13;;;;;;;5.21;100.00;95465.22;10454425;28;20217;-75
2023/03/26 06:33:03;;;;;;;8.40;2.10;;;;;;;5.21;100.00;95467.81;10454177;28;20188;-75
2023/03/26 06:38:11;;;;;;;10.37;2.17;;;;;;;5.24;100.00;95458.88;10434558;28;20238;-75
2023/03/26 06:43:12;;;;;;;4.80;2.00;;;;;;;5.25;100.00;95461.31;10434394;28;20283;-75
2023/03/26 06:48:31;;;;;;;5.57;1.70;;;;;;;5.49;100.00;95462.41;10452679;28;20203;-75
2023/03/26 06:53:50;;;;;;;3.13;1.90;;;;;;;5.49;100.00;95457.22;10452453;28;20188;-75
2023/03/26 06:59:11;;;;;;;6.20;2.00;;;;;;;5.38;100.00;95460.91;10452099;28;20223;-75
2023/03/26 07:04:30;;;;;;;5.67;1.87;;;;;;;5.44;100.00;95457.69;10452483;28;20552;-75
2023/03/26 07:09:48;;;;;;;4.07;1.50;;;;;;;5.65;100.00;95459.91;10452345;28;20223;-76
2023/03/26 07:15:11;;;;;;;3.80;1.97;;;;;;;5.59;100.00;95454.50;10451326;28;20200;-75
2023/03/26 07:20:32;;;;;;;8.40;2.00;;;;;;;5.68;100.00;95461.34;10434075;28;20714;-76
2023/03/26 07:25:33;;;;;;;6.00;2.17;;;;;;;5.64;100.00;95460.84;10433155;28;20249;-76
2023/03/26 07:31:06;;;;;;;3.20;1.70;;;;;;;5.76;100.00;95448.41;10451482;28;20530;-75
2023/03/26 07:36:23;;;;;;;5.57;1.67;;;;;;;5.79;100.00;95448.09;10418024;28;20199;-75
2023/03/26 07:41:54;;;;;;;4.00;1.77;;;;;;;5.89;100.00;95447.94;10433434;28;20660;-76
2023/03/26 07:47:33;;;;;;;3.97;1.80;;;;;;;6.28;100.00;95444.78;10435647;28;20199;-76
2023/03/26 07:52:45;;;;;;;5.20;1.80;;;;;;;6.03;100.00;95429.16;10459471;28;20199;-76
2023/03/26 07:58:34;;;;;;;5.30;1.87;;;;;;;6.05;100.00;95436.81;10441000;28;20698;-76
2023/03/26 08:04:24;;;;;;;7.23;2.37;;;;;;;6.15;100.00;95434.84;10441759;28;20276;-76
2023/03/26 08:10:01;;;;;;;6.23;2.63;;;;;;;6.46;100.00;95423.00;10427354;28;20190;-75
2023/03/26 08:15:32;;;;;;;87.37;44.20;;;;;;;5.95;100.00;95416.09;10440582;28;20191;-76
2023/03/26 08:20:49;;;;;;;8.43;2.60;;;;;;;5.86;100.00;95417.88;10440847;28;20226;-76
2023/03/26 08:25:58;;;;;;;3.67;2.17;;;;;;;5.85;100.00;95415.44;10440377;28;20198;-75
2023/03/26 08:31:01;;;;;;;8.27;2.30;;;;;;;5.99;100.00;95421.84;10457736;28;20180;-75
2023/03/26 08:36:02;;;;;;;9.63;2.60;;;;;;;5.86;100.00;95417.06;10457652;28;20192;-76
2023/03/26 08:41:13;;;;;;;3.57;2.00;;;;;;;6.46;100.00;95421.22;10457776;28;20597;-75
2023/03/26 08:46:33;;;;;;;9.07;1.80;;;;;;;6.20;100.00;95392.75;10457387;28;20196;-75
2023/03/26 08:51:55;;;;;;;9.67;2.50;;;;;;;6.32;100.00;95406.25;10439436;28;20607;-75
2023/03/26 08:57:18;;;;;;;4.07;2.13;;;;;;;6.48;100.00;95376.81;10439102;28;20246;-76
2023/03/26 09:02:23;;;;;;;7.77;2.60;;;;;;;6.62;100.00;95372.78;10456332;28;20188;-75
2023/03/26 09:07:35;;;;;;;5.63;2.50;;;;;;;7.22;96.81;95329.78;10438949;28;20188;-75
2023/03/26 09:13:05;;;;;;;3.83;1.90;;;;;;;6.95;94.75;95324.03;10456463;28;20649;-75
2023/03/26 09:18:17;;;;;;;7.40;1.97;;;;;;;7.19;91.42;95307.50;10436655;28;20699;-75
2023/03/26 09:23:36;;;;;;;5.27;2.07;;;;;;;8.07;93.46;95320.31;10438394;28;20188;-75
2023/03/26 09:29:08;;;;;;;15.40;2.17;;;;;;;6.57;100.00;95381.88;10455962;28;20275;-75
2023/03/26 09:34:29;;;;;;;10.50;2.80;;;;;;;6.00;100.00;95374.06;10455387;28;20203;-75
2023/03/26 09:39:45;;;;;;;8.10;1.90;;;;;;;6.83;100.00;95365.25;10455583;28;20332;-75
2023/03/26 09:45:02;;;;;;;4.67;2.00;;;;;;;7.98;100.00;95353.47;10421198;28;20663;-75
2023/03/26 09:50:42;;;;;;;4.20;1.87;;;;;;;7.56;100.00;95305.19;10454654;28;20191;-75
2023/03/26 09:55:55;;;;;;;12.53;2.37;;;;;;;8.20;95.34;95299.66;10454111;28;20334;-75
2023/03/26 10:01:26;;;;;;;12.17;4.33;;;;;;;8.47;94.67;95303.53;10436685;28;20248;-75
2023/03/26 10:07:07;;;;;;;6.30;1.93;;;;;;;8.43;90.24;95278.72;10436205;28;20530;-75
2023/03/26 10:12:28;;;;;;;8.03;2.40;;;;;;;7.78;90.32;95278.31;10419995;28;20200;-75
2023/03/26 10:17:56;;;;;;;9.30;1.90;;;;;;;8.87;89.85;95261.50;10436559;28;20241;-76
2023/03/26 10:23:19;;;;;;;8.23;1.63;;;;;;;8.62;83.30;95206.13;10436143;28;20310;-76
2023/03/26 10:28:40;;;;;;;6.17;1.90;;;;;;;8.39;84.56;95217.44;10435736;28;20196;-76
2023/03/26 10:34:26;;;;;;;7.70;1.80;;;;;;;8.55;80.06;95167.69;10435263;28;20234;-75
2023/03/26 10:39:46;;;;;;;5.87;1.80;;;;;;;8.12;79.13;95149.25;10452690;28;20234;-76
2023/03/26 10:44:54;;;;;;;5.87;2.03;;;;;;;8.46;78.63;95139.28;10435279;28;20218;-76
2023/03/26 10:50:21;;;;;;;2.87;2.17;;;;;;;9.01;76.82;95118.81;10435527;28;20194;-76
2023/03/26 10:55:30;;;;;;;2.17;1.40;;;;;;;8.97;75.75;95107.91;10417830;28;20571;-75
2023/03/26 11:00:36;;;;;;;3.30;1.20;;;;;;;10.47;72.30;95073.72;10434807;28;20704;-76
2023/03/26 11:05:57;;;;;;;3.27;1.30;;;;;;;9.78;70.66;95049.22;10434232;28;20189;-76
2023/03/26 11:11:35;;;;;;;3.17;1.60;;;;;;;10.49;67.96;95032.44;10434231;28;20631;-75
2023/03/26 11:16:46;;;;;;;1.58;1.23;;;;;;;9.46;72.65;95088.03;10452364;28;20206;-75
2023/03/26 11:22:07;;;;;;;6.65;1.40;;;;;;;10.17;70.98;95071.38;10434106;28;20578;-75
2023/03/26 11:27:22;;;;;;;6.95;1.50;;;;;;;11.27;64.43;94966.41;10451665;28;20199;-76
2023/03/26 11:32:26;;;;;;;4.03;1.60;;;;;;;11.92;61.70;94945.47;10451655;28;20269;-75
2023/03/26 11:37:33;;;;;;;3.63;1.30;;;;;;;13.32;59.10;94917.41;10432487;28;20235;-75
2023/03/26 11:42:34;;;;;;;5.18;1.33;;;;;;;12.57;59.58;94922.69;10416413;28;20303;-75
2023/03/26 11:47:39;;;;;;;3.60;1.23;;;;;;;11.57;62.75;94971.19;10451062;28;20191;-75
2023/03/26 11:52:40;;;;;;;5.18;1.45;;;;;;;11.32;62.49;94945.63;10433222;28;20196;-75
2023/03/26 11:57:46;;;;;;;2.75;1.30;;;;;;;11.25;63.44;94976.28;10451093;28;20632;-75
2023/03/26 12:02:54;;;;;;;3.60;1.20;;;;;;;11.01;65.62;95015.22;10433268;28;20196;-76
2023/03/26 12:07:56;;;;;;;6.30;1.20;;;;;;;10.87;63.35;94966.41;10416429;28;20283;-75
2023/03/26 12:12:59;;;;;;;4.85;1.30;;;;;;;10.33;63.81;94963.72;10450834;28;20237;-75
2023/03/26 12:18:19;;;;;;;2.58;1.10;;;;;;;10.39;62.93;94946.44;10432936;28;20220;-76
2023/03/26 12:23:49;;;;;;;3.27;1.30;;;;;;;9.45;65.79;94982.69;10432714;28;20195;-75
2023/03/26 12:28:50;;;;;;;9.17;1.87;;;;;;;9.83;65.30;94971.00;10444318;28;20231;-75
2023/03/26 12:34:15;;;;;;;8.47;2.63;;;;;;;10.45;63.89;94956.13;10450672;28;20274;-75
2023/03/26 12:39:28;;;;;;;6.60;2.60;;;;;;;9.81;65.44;94973.00;10448572;28;20239;-75
2023/03/26 12:44:32;;;;;;;3.20;2.03;;;;;;;10.03;64.27;94954.56;10439932;28;20188;-75
2023/03/26 12:49:33;;;;;;;2.63;1.33;;;;;;;9.74;64.31;94943.38;10458047;28;20559;-75
2023/03/26 12:54:44;;;;;;;6.78;2.10;;;;;;;9.90;64.88;94952.72;10439475;28;20207;-74
2023/03/26 13:00:12;;;;;;;4.90;1.70;;;;;;;10.68;64.06;94949.69;10457294;28;20224;-75
2023/03/26 13:05:19;;;;;;;4.55;1.40;;;;;;;10.89;62.93;94930.38;10457076;28;20215;-76
2023/03/26 13:10:36;;;;;;;5.75;1.55;;;;;;;10.70;64.26;94950.28;10439124;28;20672;-75
2023/03/26 13:15:51;;;;;;;2.80;1.10;;;;;;;10.80;65.42;94976.91;10438893;28;20207;-75
2023/03/26 13:21:10;;;;;;;2.55;1.10;;;;;;;10.75;72.92;95106.84;10421657;28;20223;-74
2023/03/26 13:26:25;;;;;;;6.90;1.70;;;;;;;9.83;75.43;95122.69;10421997;28;20261;-75
2023/03/26 13:31:37;;;;;;;7.68;1.60;;;;;;;9.37;80.37;95171.00;10422265;28;20302;-75
2023/03/26 13:36:59;;;;;;;4.40;1.20;;;;;;;9.36;84.26;95165.97;10437521;28;20232;-75
2023/03/26 13:42:14;;;;;;;4.37;2.10;;;;;;;9.21;84.58;95135.47;10455893;28;20602;-75
2023/03/26 13:47:20;;;;;;;2.03;1.20;;;;;;;8.72;87.25;95151.84;10453576;28;20187;-75
2023/03/26 13:52:32;;;;;;;7.57;2.27;;;;;;;7.49;91.86;95183.41;10455245;28;20203;-75
2023/03/26 13:57:36;;;;;;;3.33;1.50;;;;;;;6.66;100.00;95190.13;10437072;28;20223;-76
2023/03/26 14:02:39;;;;;;;2.07;1.20;;;;;;;6.04;100.00;95204.59;10455042;28;20192;-75
2023/03/26 14:07:43;;;;;;;5.57;1.47;;;;;;;5.99;100.00;95203.50;10454682;28;20177;-75
2023/03/26 14:13:15;;;;;;;5.77;1.80;;;;;;;5.92;100.00;95208.50;10436555;28;20192;-75
2023/03/26 14:18:36;;;;;;;3.63;2.00;;;;;;;5.91;100.00;95201.66;10435675;28;20834;-75
2023/03/26 14:23:57;;;;;;;5.93;1.77;;;;;;;5.91;100.00;95201.66;10436664;28;20537;-76
2023/03/26 14:29:23;;;;;;;7.20;2.43;;;;;;;6.04;100.00;95207.22;10452860;28;20636;-76
2023/03/26 14:34:34;;;;;;;6.37;2.93;;;;;;;5.50;100.00;95209.50;10435541;28;20196;-75
2023/03/26 14:40:06;;;;;;;4.10;1.93;;;;;;;5.20;100.00;95190.97;10452665;28;20326;-75
2023/03/26 14:45:10;;;;;;;11.50;7.07;;;;;;;5.16;100.00;95184.47;10434859;28;20676;-75
2023/03/26 14:50:34;;;;;;;1.30;1.20;;;;;;;4.94;100.00;95191.91;10452049;28;20193;-76
2023/03/26 14:55:56;;;;;;;3.43;2.50;;;;;;;5.03;100.00;95186.75;10451462;28;20203;-75
2023/03/26 15:01:09;;;;;;;8.60;3.87;;;;;;;4.85;100.00;95186.88;10451952;28;20262;-75
2023/03/26 15:06:31;;;;;;;3.17;1.53;;;;;;;4.77;100.00;95192.84;10451652;28;20601;-75
2023/03/26 15:12:06;;;;;;;2.13;1.33;;;;;;;4.80;100.00;95174.38;10434144;28;20191;-75
2023/03/26 15:17:31;;;;;;;3.87;2.27;;;;;;;4.95;100.00;95170.19;10433346;28;20188;-75
2023/03/26 15:23:16;;;;;;;2.43;1.27;;;;;;;4.90;100.00;95167.28;10451958;28;20192;-75
2023/03/26 15:28:54;;;;;;;6.50;2.47;;;;;;;4.99;100.00;95158.53;10433832;28;20380;-75
2023/03/26 15:34:22;;;;;;;1.93;1.40;;;;;;;5.07;100.00;95156.88;10451255;28;20558;-75
2023/03/26 15:40:08;;;;;;;1.93;1.30;;;;;;;5.00;100.00;95154.94;10451651;28;20259;-75
2023/03/26 15:45:35;;;;;;;10.50;5.67;;;;;;;4.87;100.00;95149.44;10434392;28;20188;-75
2023/03/26 15:50:47;;;;;;;4.00;2.50;;;;;;;4.82;100.00;95149.06;10432798;28;20253;-75
2023/03/26 15:56:19;;;;;;;5.67;1.93;;;;;;;4.89;100.00;95149.25;10432769;28;20279;-75
2023/03/26 16:02:03;;;;;;;4.47;1.90;;;;;;;4.84;100.00;95144.56;10425533;28;20258;-75
2023/03/26 16:07:27;;;;;;;4.57;2.20;;;;;;;5.17;100.00;95147.16;10434577;28;20470;-75
2023/03/26 16:12:31;;;;;;;5.33;1.60;;;;;;;5.20;100.00;95138.25;10438999;28;20196;-76
2023/03/26 16:18:18;;;;;;;6.97;2.70;;;;;;;5.33;100.00;95147.19;10458795;28;20259;-77
2023/03/26 16:23:41;;;;;;;2.67;1.63;;;;;;;5.37;100.00;95139.88;10458931;28;20580;-75
2023/03/26 16:28:44;;;;;;;4.10;1.93;;;;;;;5.11;100.00;95134.84;10458226;28;20219;-76
2023/03/26 16:33:48;;;;;;;5.53;2.30;;;;;;;5.15;100.00;95138.75;10458622;28;20227;-76
2023/03/26 16:38:58;;;;;;;5.93;2.10;;;;;;;5.10;100.00;95141.00;10457623;28;20377;-75
2023/03/26 16:44:16;;;;;;;8.17;4.10;;;;;;;5.22;100.00;95133.69;10458241;28;20218;-76
2023/03/26 16:49:38;;;;;;;3.23;1.70;;;;;;;5.16;100.00;95135.16;10457997;28;20267;-76
2023/03/26 16:55:05;;;;;;;4.20;2.73;;;;;;;5.18;100.00;95141.81;10456895;28;20649;-77
2023/03/26 17:00:12;;;;;;;7.70;4.20;;;;;;;5.23;100.00;95141.31;10456482;28;20216;-76
2023/03/26 17:05:19;;;;;;;4.73;2.27;;;;;;;5.21;100.00;95143.28;10457095;28;20208;-77
2023/03/26 17:10:59;;;;;;;16.77;6.47;;;;;;;5.12;100.00;95144.25;10438921;28;20223;-77
2023/03/26 17:16:11;;;;;;;4.57;1.97;;;;;;;5.15;100.00;95144.72;10425495;28;20206;-76
2023/03/26 17:21:19;;;;;;;4.17;2.10;;;;;;;5.13;100.00;95145.84;10438128;28;20259;-77
2023/03/26 17:27:15;;;;;;;3.73;2.20;;;;;;;4.95;100.00;95146.84;10438190;28;20702;-76
2023/03/26 17:32:16;;;;;;;3.03;2.00;;;;;;;5.05;100.00;95164.84;10412969;28;20231;-76
2023/03/26 17:37:22;;;;;;;5.80;2.10;;;;;;;5.09;100.00;95170.53;10437941;28;20788;-75
2023/03/26 17:42:36;;;;;;;7.47;2.03;;;;;;;4.98;100.00;95166.47;10455781;28;20633;-76
2023/03/26 17:47:43;;;;;;;5.17;2.70;;;;;;;4.90;100.00;95172.47;10437801;28;20275;-76
2023/03/26 17:52:48;;;;;;;7.87;4.20;;;;;;;4.94;100.00;95178.13;10466182;28;20184;-76
2023/03/26 17:57:56;;;;;;;2.50;2.30;;;;;;;5.06;100.00;95187.22;10437264;28;20226;-76
2023/03/26 18:03:15;;;;;;;6.83;3.60;;;;;;;5.07;100.00;95182.84;10437254;28;20212;-75
2023/03/26 18:08:38;;;;;;;5.17;2.70;;;;;;;5.03;100.00;95181.56;10436621;28;20184;-76
2023/03/26 18:13:47;;;;;;;8.80;4.00;;;;;;;4.99;100.00;95187.06;10436985;28;20718;-75
2023/03/26 18:18:50;;;;;;;5.53;2.67;;;;;;;4.92;100.00;95188.66;10453631;28;20226;-77
2023/03/26 18:23:51;;;;;;;6.20;2.30;;;;;;;4.86;100.00;95193.69;10454255;28;20344;-76
2023/03/26 18:28:54;;;;;;;4.33;3.00;;;;;;;4.80;100.00;95179.56;10453298;28;20362;-76
2023/03/26 18:33:57;;;;;;;6.47;2.37;;;;;;;4.76;100.00;95186.03;10435291;28;20192;-77
2023/03/26 18:38:58;;;;;;;5.97;2.90;;;;;;;4.78;100.00;95192.69;10451915;28;20239;-75
2023/03/26 18:44:00;;;;;;;4.27;2.07;;;;;;;4.75;100.00;95198.19;10435094;28;20195;-76
2023/03/26 18:49:01;;;;;;;3.03;1.80;;;;;;;4.60;100.00;95187.59;10434873;28;20196;-76
2023/03/26 18:54:03;;;;;;;2.80;1.70;;;;;;;4.64;100.00;95183.75;10452552;28;20616;-75
2023/03/26 18:59:26;;;;;;;2.53;1.80;;;;;;;4.71;100.00;95177.91;10434171;28;20692;-76
2023/03/26 19:04:31;;;;;;;2.37;1.70;;;;;;;4.58;100.00;95179.19;10451960;28;20191;-76
2023/03/26 19:09:32;;;;;;;3.17;1.70;;;;;;;4.51;100.00;95170.41;10434598;28;20215;-76
2023/03/26 19:14:35;;;;;;;2.70;1.63;;;;;;;4.51;100.00;95164.41;10452150;28;20805;-76
2023/03/26 19:19:36;;;;;;;2.53;1.83;;;;;;;4.57;100.00;95161.19;10433134;28;20220;-76
2023/03/26 19:24:39;;;;;;;4.47;2.40;;;;;;;4.39;100.00;95162.09;10451548;28;20211;-76
2023/03/26 19:29:41;;;;;;;3.50;2.13;;;;;;;4.41;100.00;95154.97;10433028;28;20265;-76
2023/03/26 19:34:43;;;;;;;4.83;1.80;;;;;;;4.49;100.00;95153.38;10433259;28;20195;-76
2023/03/26 19:39:46;;;;;;;2.50;2.30;;;;;;;4.47;100.00;95146.56;10450708;28;20224;-76
2023/03/26 19:44:47;;;;;;;1.60;1.50;;;;;;;4.53;100.00;95141.72;10451177;28;20184;-75
2023/03/26 19:49:50;;;;;;;2.40;1.70;;;;;;;4.29;100.00;95127.72;10432655;28;20199;-76
2023/03/26 19:55:01;;;;;;;3.03;1.70;;;;;;;4.27;100.00;95125.28;10432971;28;20267;-76
2023/03/26 20:00:12;;;;;;;2.90;2.20;;;;;;;4.27;100.00;95114.09;10450804;28;20706;-77
2023/03/26 20:05:21;;;;;;;3.57;2.37;;;;;;;4.35;100.00;95115.88;10449738;28;20207;-77
2023/03/26 20:10:22;;;;;;;5.20;2.20;;;;;;;4.53;100.00;95105.41;10433111;28;20306;-76
2023/03/26 20:15:25;;;;;;;3.27;1.80;;;;;;;4.58;100.00;95106.56;10450534;28;20674;-75
2023/03/26 20:20:26;;;;;;;6.30;2.87;;;;;;;4.57;100.00;95101.53;10450247;28;20220;-75
2023/03/26 20:25:29;;;;;;;4.47;2.40;;;;;;;4.53;100.00;95088.06;10450619;28;20191;-75
2023/03/26 20:30:30;;;;;;;1.70;1.60;;;;;;;4.42;100.00;95075.41;10432469;28;20330;-76
2023/03/26 20:35:30;;;;;;;2.17;1.80;;;;;;;4.35;100.00;95061.44;10450086;28;20733;-76
2023/03/26 20:40:31;;;;;;;2.40;1.80;;;;;;;4.25;100.00;95054.63;10450125;28;20712;-77
2023/03/26 20:45:31;;;;;;;4.63;2.27;;;;;;;4.09;100.00;95059.78;10449906;28;20679;-77
2023/03/26 20:50:32;;;;;;;6.33;3.37;;;;;;;4.15;100.00;95074.69;10450793;28;20184;-76
2023/03/26 20:55:34;;;;;;;5.90;3.90;;;;;;;4.22;100.00;95074.88;10450805;28;20680;-76
2023/03/26 21:00:35;;;;;;;7.03;4.70;;;;;;;4.26;100.00;95071.81;10457444;28;20246;-76
2023/03/26 21:05:43;;;;;;;9.43;5.27;;;;;;;4.29;100.00;95091.44;10457033;28;20226;-76
2023/03/26 21:11:11;;;;;;;9.30;5.60;;;;;;;4.25;100.00;95090.91;10392175;28;20192;-76
2023/03/26 21:16:13;;;;;;;9.63;5.10;;;;;;;4.19;100.00;95096.72;10438417;28;20678;-76
2023/03/26 21:21:45;;;;;;;11.17;5.77;;;;;;;4.22;100.00;95122.34;10456661;28;20216;-76
2023/03/26 21:26:53;;;;;;;7.30;5.27;;;;;;;4.37;100.00;95119.16;10456366;28;20188;-76
2023/03/26 21:31:54;;;;;;;6.27;4.07;;;;;;;4.35;100.00;95136.63;10438524;28;20188;-77
2023/03/26 21:36:54;;;;;;;4.10;3.03;;;;;;;4.13;100.00;95125.06;10455902;28;20442;-76
2023/03/26 21:41:55;;;;;;;8.63;5.37;;;;;;;3.95;100.00;95110.41;10454943;28;20322;-76
2023/03/26 21:46:56;;;;;;;6.97;5.30;;;;;;;4.10;100.00;95115.81;10453719;28;20679;-76
2023/03/26 21:51:56;;;;;;;10.00;6.47;;;;;;;4.22;100.00;95127.50;10453409;28;20189;-75
2023/03/26 21:57:25;;;;;;;13.47;6.20;;;;;;;4.26;100.00;95118.47;10454055;28;20648;-76
2023/03/26 22:02:53;;;;;;;13.00;7.23;;;;;;;4.32;100.00;95123.97;10453199;28;20564;-77
2023/03/26 22:07:56;;;;;;;13.20;7.57;;;;;;;4.39;100.00;95130.16;10451876;28;20204;-76
2023/03/26 22:12:57;;;;;;;11.60;8.00;;;;;;;4.33;100.00;95126.41;10435198;28;20230;-76
2023/03/26 22:18:01;;;;;;;16.13;10.73;;;;;;;4.16;100.00;95122.16;10452326;28;20748;-76
2023/03/26 22:23:02;;;;;;;14.53;9.93;;;;;;;4.13;100.00;95128.44;10451839;28;20220;-77
2023/03/26 22:28:03;;;;;;;18.27;11.07;;;;;;;4.08;100.00;95130.72;10451464;28;20282;-75
2023/03/26 22:33:03;;;;;;;14.27;8.93;;;;;;;4.03;100.00;95136.34;10451259;28;20280;-76
2023/03/26 22:38:04;;;;;;;17.10;9.87;;;;;;;4.10;100.00;95139.13;10434017;28;20570;-76
2023/03/26 22:43:05;;;;;;;17.07;8.77;;;;;;;4.03;100.00;95133.75;10451191;28;20746;-76
2023/03/26 22:48:05;;;;;;;15.50;10.13;;;;;;;4.06;100.00;95132.66;10451672;28;20194;-76
2023/03/26 22:53:06;;;;;;;15.93;9.63;;;;;;;4.03;100.00;95135.56;10451132;28;20606;-76
2023/03/26 22:58:06;;;;;;;13.63;8.53;;;;;;;4.00;100.00;95139.25;10450899;28;20212;-76
2023/03/26 23:03:07;;;;;;;12.43;7.83;;;;;;;3.90;100.00;95129.00;10451309;28;20630;-76
2023/03/26 23:08:07;;;;;;;12.53;7.37;;;;;;;3.92;100.00;95144.38;10450726;28;20221;-76
2023/03/26 23:13:08;;;;;;;13.77;8.77;;;;;;;3.88;100.00;95146.47;10413149;28;20204;-76
2023/03/26 23:18:08;;;;;;;13.07;7.40;;;;;;;3.88;100.00;95148.25;10408698;28;20228;-76
2023/03/26 23:23:08;;;;;;;12.40;7.10;;;;;;;3.91;100.00;95158.31;10409783;28;20188;-76
2023/03/26 23:28:09;;;;;;;10.33;6.87;;;;;;;3.81;100.00;95178.31;10408359;28;20267;-76
2023/03/26 23:33:10;;;;;;;14.10;7.30;;;;;;;3.65;100.00;95174.66;10409259;28;20199;-76
2023/03/26 23:38:11;;;;;;;13.30;8.10;;;;;;;3.70;100.00;95180.19;10407996;28;20228;-76
2023/03/26 23:43:12;;;;;;;11.90;7.70;;;;;;;3.73;100.00;95189.44;10408411;28;20645;-76
2023/03/26 23:48:16;;;;;;;6.97;5.50;;;;;;;3.71;100.00;95187.00;10408315;28;20203;-77
2023/03/26 23:53:17;;;;;;;6.37;5.27;;;;;;;3.63;100.00;95186.13;10408738;28;20185;-76
2023/03/26 23:58:19;;;;;;;6.87;5.17;;;;;;;3.69;100.00;95195.88;10407504;28;20216;-77
